Time;durP1;ratioP1;P1;durP2;ratioP2;P2;SDS_P1;SDS_P2;PMS_P1;PMS_P2;Temp;Humidity;BMP_temperature;BMP_pressure;BME280_temperature;BME280_humidity;BME280_pressure;Samples;Min_cycle;Max_cycle;Signal;HPM_P1;HPM_P2
2023/06/04 00:01:02;;;;;;;;;;;11.70;99.90;;;;;;5034453;28;20430;-84
2023/06/04 00:03:28;;;;;;;;;;;11.60;99.90;;;;;;5018472;28;19986;-84
2023/06/04 00:05:53;;;;;;;;;;;11.60;99.90;;;;;;5017104;28;20228;-84
2023/06/04 00:08:19;;;;;;;;;;;11.60;99.90;;;;;;5036047;28;19968;-85
2023/06/04 00:10:44;;;;;;;;;;;11.50;99.90;;;;;;5031634;28;19925;-84
2023/06/04 00:13:10;;;;;;;;;;;11.50;99.90;;;;;;5036038;28;19924;-84
2023/06/04 00:15:36;;;;;;;;;;;11.40;99.90;;;;;;5018236;28;19924;-83
2023/06/04 00:18:01;;;;;;;;;;;11.40;99.90;;;;;;5019371;28;20078;-84
2023/06/04 00:20:27;;;;;;;;;;;11.40;99.90;;;;;;5035233;28;19925;-84
2023/06/04 00:22:52;;;;;;;;;;;11.30;99.90;;;;;;5023037;28;20407;-84
2023/06/04 00:25:18;;;;;;;;;;;11.30;99.90;;;;;;5035493;28;19929;-84
2023/06/04 00:27:44;;;;;;;;;;;11.30;99.90;;;;;;5035977;28;19925;-84
2023/06/04 00:30:09;;;;;;;;;;;11.30;99.90;;;;;;5036042;28;19925;-84
2023/06/04 00:32:35;;;;;;;;;;;11.30;99.90;;;;;;5036164;28;20358;-83
2023/06/04 00:35:01;;;;;;;;;;;11.30;99.90;;;;;;5018195;28;19960;-84
2023/06/04 00:37:27;;;;;;;;;;;11.30;99.90;;;;;;5018985;28;19929;-84
2023/06/04 00:39:53;;;;;;;;;;;11.20;99.90;;;;;;5019040;28;20339;-84
2023/06/04 00:42:18;;;;;;;;;;;11.20;99.90;;;;;;5035075;28;20007;-84
2023/06/04 00:44:45;;;;;;;;;;;11.20;99.90;;;;;;5019226;28;19931;-83
2023/06/04 00:47:20;;;;;;;;;;;11.20;99.90;;;;;;5035382;28;19925;-84
2023/06/04 00:49:46;;;;;;;;;;;11.20;99.90;;;;;;5017764;28;20035;-84
2023/06/04 00:52:13;;;;;;;;;;;11.10;99.90;;;;;;5018500;28;20004;-84
2023/06/04 00:54:40;;;;;;;;;;;11.10;99.90;;;;;;5035637;28;19925;-83
2023/06/04 00:57:06;;;;;;;;;;;11.10;99.90;;;;;;5033561;28;20016;-84
2023/06/04 00:59:33;;;;;;;;;;;11.10;99.90;;;;;;5034439;28;20293;-84
2023/06/04 01:02:02;;;;;;;;;;;11.10;99.90;;;;;;5035776;28;19924;-84
2023/06/04 01:04:36;;;;;;;;;;;11.10;99.90;;;;;;5031233;28;19971;-84
2023/06/04 01:07:03;;;;;;;;;;;11.10;99.90;;;;;;5017811;28;19925;-84
2023/06/04 01:09:29;;;;;;;;;;;11.10;99.90;;;;;;5035180;28;19925;-84
2023/06/04 01:11:58;;;;;;;;;;;11.10;99.90;;;;;;5034928;28;19928;-84
2023/06/04 01:14:24;;;;;;;;;;;11.10;99.90;;;;;;5031557;28;19925;-84
2023/06/04 01:17:01;;;;;;;;;;;11.10;99.90;;;;;;5011320;28;19925;-84
2023/06/04 01:19:27;;;;;;;;;;;11.10;99.90;;;;;;5020385;28;20011;-84
2023/06/04 01:21:55;;;;;;;;;;;11.10;99.90;;;;;;5028407;28;19925;-84
2023/06/04 01:24:23;;;;;;;;;;;9.20;99.90;;;;;;5035030;28;19931;-84
2023/06/04 01:26:49;;;;;;;;;;;11.00;99.90;;;;;;5035232;28;20378;-84
2023/06/04 01:29:15;;;;;;;;;;;11.00;99.90;;;;;;5018510;28;19968;-83
2023/06/04 01:31:41;;;;;;;;;;;11.00;99.90;;;;;;5034841;28;20302;-83
2023/06/04 01:34:07;;;;;;;;;;;11.00;99.90;;;;;;5033706;28;19929;-83
2023/06/04 01:36:33;;;;;;;;;;;11.00;99.90;;;;;;5034745;28;19925;-83
2023/06/04 01:39:00;;;;;;;;;;;10.90;99.90;;;;;;5034922;28;19932;-84
2023/06/04 01:41:26;;;;;;;;;;;10.90;99.90;;;;;;5034779;28;20294;-82
2023/06/04 01:43:51;;;;;;;;;;;11.00;99.90;;;;;;5034573;28;19925;-83
2023/06/04 01:46:17;;;;;;;;;;;10.90;99.90;;;;;;5035288;28;19928;-82
2023/06/04 01:48:42;;;;;;;;;;;11.00;99.90;;;;;;5016718;28;19972;-85
2023/06/04 01:51:08;;;;;;;;;;;11.00;99.90;;;;;;5017788;28;19924;-86
2023/06/04 01:53:34;;;;;;;;;;;10.90;99.90;;;;;;5034961;28;19941;-82
2023/06/04 01:56:01;;;;;;;;;;;10.90;99.90;;;;;;5001847;28;19931;-83
2023/06/04 01:58:27;;;;;;;;;;;10.90;99.90;;;;;;5034613;28;20291;-83
2023/06/04 02:00:55;;;;;;;;;;;10.90;99.90;;;;;;5002608;28;19929;-83
2023/06/04 02:03:22;;;;;;;;;;;10.80;99.90;;;;;;5033819;28;19968;-84
2023/06/04 02:05:48;;;;;;;;;;;10.90;99.90;;;;;;5026629;28;19932;-83
2023/06/04 02:08:18;;;;;;;;;;;10.80;99.90;;;;;;5034105;28;19968;-84
2023/06/04 02:10:47;;;;;;;;;;;10.80;99.90;;;;;;5022937;28;19973;-83
2023/06/04 02:13:13;;;;;;;;;;;10.70;99.90;;;;;;5029160;28;19951;-83
2023/06/04 02:15:39;;;;;;;;;;;10.70;99.90;;;;;;5034208;28;20391;-83
2023/06/04 02:18:16;;;;;;;;;;;10.70;99.90;;;;;;5032905;28;20306;-84
2023/06/04 02:20:43;;;;;;;;;;;10.60;99.90;;;;;;5034907;28;20041;-86
2023/06/04 02:23:09;;;;;;;;;;;10.60;99.90;;;;;;5020830;28;19933;-84
2023/06/04 02:25:34;;;;;;;;;;;10.60;99.90;;;;;;5030626;28;19925;-83
2023/06/04 02:28:00;;;;;;;;;;;10.60;99.90;;;;;;5026464;28;19931;-83
2023/06/04 02:30:26;;;;;;;;;;;10.50;99.90;;;;;;5036831;28;20295;-83
2023/06/04 02:32:51;;;;;;;;;;;10.50;99.90;;;;;;5020643;28;19925;-84
2023/06/04 02:35:22;;;;;;;;;;;10.40;99.90;;;;;;5036095;28;19932;-83
2023/06/04 02:37:48;;;;;;;;;;;10.40;99.90;;;;;;5037449;28;20298;-83
2023/06/04 02:40:14;;;;;;;;;;;10.30;99.90;;;;;;5020513;28;19925;-83
2023/06/04 02:42:40;;;;;;;;;;;10.30;99.90;;;;;;5020734;28;19924;-84
2023/06/04 02:45:06;;;;;;;;;;;10.20;99.90;;;;;;5025990;28;20048;-83
2023/06/04 02:47:31;;;;;;;;;;;10.20;99.90;;;;;;5034021;28;20279;-83
2023/06/04 02:49:57;;;;;;;;;;;10.10;99.90;;;;;;5026214;28;19925;-83
2023/06/04 02:52:25;;;;;;;;;;;10.10;99.90;;;;;;5010769;28;20016;-83
2023/06/04 02:54:51;;;;;;;;;;;10.10;99.90;;;;;;5019121;28;19925;-83
2023/06/04 02:57:16;;;;;;;;;;;10.10;99.90;;;;;;5013380;28;19950;-83
2023/06/04 02:59:42;;;;;;;;;;;9.90;99.90;;;;;;5003233;28;20366;-83
2023/06/04 03:02:07;;;;;;;;;;;9.70;99.90;;;;;;5025653;28;20016;-84
2023/06/04 03:04:34;;;;;;;;;;;9.50;99.90;;;;;;4955654;28;1822073;-83
2023/06/04 03:07:01;;;;;;;;;;;9.30;99.90;;;;;;5019358;28;20036;-83
2023/06/04 03:09:26;;;;;;;;;;;11.40;99.90;;;;;;5020147;28;20020;-83
2023/06/04 03:11:52;;;;;;;;;;;9.20;99.90;;;;;;5011957;28;20007;-84
2023/06/04 03:14:18;;;;;;;;;;;9.10;99.90;;;;;;5030543;28;19926;-83
2023/06/04 03:16:44;;;;;;;;;;;9.10;99.90;;;;;;5037578;28;19925;-83
2023/06/04 03:19:11;;;;;;;;;;;9.00;99.90;;;;;;5020082;28;20016;-84
2023/06/04 03:21:39;;;;;;;;;;;9.00;99.90;;;;;;5020862;28;19928;-83
2023/06/04 03:24:05;;;;;;;;;;;8.90;99.90;;;;;;5036054;28;20313;-84
2023/06/04 03:26:31;;;;;;;;;;;8.80;99.90;;;;;;5037410;28;19936;-85
2023/06/04 03:28:57;;;;;;;;;;;8.70;99.90;;;;;;5036928;28;20371;-84
2023/06/04 03:31:22;;;;;;;;;;;8.60;99.90;;;;;;5020773;28;19936;-83
2023/06/04 03:33:48;;;;;;;;;;;8.60;99.90;;;;;;5035475;28;19931;-84
2023/06/04 03:36:13;;;;;;;;;;;8.50;99.90;;;;;;5020464;28;19925;-84
2023/06/04 03:38:39;;;;;;;;;;;8.50;99.90;;;;;;5003816;28;20294;-84
2023/06/04 03:41:05;;;;;;;;;;;8.50;99.90;;;;;;5014793;28;19925;-84
2023/06/04 03:43:30;;;;;;;;;;;8.40;99.90;;;;;;5020132;28;20367;-84
2023/06/04 03:45:56;;;;;;;;;;;8.30;99.90;;;;;;5036924;28;19940;-83
2023/06/04 03:48:22;;;;;;;;;;;8.30;99.90;;;;;;5035638;28;19925;-85
2023/06/04 03:50:49;;;;;;;;;;;8.30;99.90;;;;;;5033840;28;19944;-84
2023/06/04 03:53:14;;;;;;;;;;;8.40;99.90;;;;;;5036427;28;19924;-83
2023/06/04 03:55:40;;;;;;;;;;;8.60;99.90;;;;;;5036526;28;19931;-84
2023/06/04 03:58:09;;;;;;;;;;;8.90;99.90;;;;;;5019678;28;20382;-84
2023/06/04 04:00:34;;;;;;;;;;;9.00;99.90;;;;;;5030511;28;19988;-84
2023/06/04 04:03:00;;;;;;;;;;;9.00;99.90;;;;;;5036025;28;20067;-84
2023/06/04 04:05:26;;;;;;;;;;;9.00;99.90;;;;;;5035937;28;19928;-84
2023/06/04 04:07:51;;;;;;;;;;;8.80;99.90;;;;;;5036784;28;19925;-84
2023/06/04 04:10:17;;;;;;;;;;;8.70;99.90;;;;;;5036375;28;20378;-84
2023/06/04 04:12:43;;;;;;;;;;;8.50;99.90;;;;;;5030635;28;19964;-84
2023/06/04 04:15:08;;;;;;;;;;;8.40;99.90;;;;;;5015587;28;20271;-84
2023/06/04 04:17:34;;;;;;;;;;;8.20;99.90;;;;;;5045100;28;19932;-84
2023/06/04 04:20:01;;;;;;;;;;;8.10;99.90;;;;;;5015841;28;19932;-84
2023/06/04 04:22:27;;;;;;;;;;;8.10;99.90;;;;;;5019433;28;19951;-83
2023/06/04 04:24:52;;;;;;;;;;;8.10;99.90;;;;;;5031300;28;19932;-84
2023/06/04 04:27:18;;;;;;;;;;;8.10;99.90;;;;;;5036118;28;19925;-84
2023/06/04 04:29:44;;;;;;;;;;;8.20;99.90;;;;;;5029501;28;19978;-83
2023/06/04 04:32:13;;;;;;;;;;;8.20;99.90;;;;;;5018895;28;20220;-83
2023/06/04 04:34:43;;;;;;;;;;;8.40;99.90;;;;;;5034610;28;19928;-83
2023/06/04 04:37:09;;;;;;;;;;;8.60;99.90;;;;;;5035585;28;19975;-84
2023/06/04 04:39:35;;;;;;;;;;;8.80;99.90;;;;;;5029721;28;20427;-85
2023/06/04 04:42:02;;;;;;;;;;;9.10;99.90;;;;;;5035797;28;19925;-84
2023/06/04 04:44:27;;;;;;;;;;;9.40;99.90;;;;;;5035121;28;19943;-83
2023/06/04 04:46:53;;;;;;;;;;;9.60;99.90;;;;;;5032711;28;19924;-84
2023/06/04 04:49:18;;;;;;;;;;;9.90;99.90;;;;;;5020925;28;19925;-84
2023/06/04 04:51:44;;;;;;;;;;;10.10;99.90;;;;;;5031669;28;19924;-84
2023/06/04 04:54:09;;;;;;;;;;;10.30;99.90;;;;;;5035447;28;19991;-84
2023/06/04 04:56:35;;;;;;;;;;;10.40;99.90;;;;;;5035749;28;20358;-84
2023/06/04 04:59:01;;;;;;;;;;;10.60;99.90;;;;;;5035061;28;19928;-83
2023/06/04 05:01:27;;;;;;;;;;;10.80;99.90;;;;;;5034506;28;19933;-84
2023/06/04 05:03:52;;;;;;;;;;;10.90;99.90;;;;;;5027804;28;20015;-84
2023/06/04 05:06:19;;;;;;;;;;;11.00;99.90;;;;;;5035150;28;19924;-84
2023/06/04 05:08:45;;;;;;;;;;;11.10;99.90;;;;;;5034260;28;20007;-84
2023/06/04 05:11:10;;;;;;;;;;;11.20;99.90;;;;;;5035349;28;19955;-84
2023/06/04 05:13:36;;;;;;;;;;;11.30;99.90;;;;;;5027908;28;19952;-83
2023/06/04 05:16:06;;;;;;;;;;;11.30;99.90;;;;;;5018869;28;19931;-85
2023/06/04 05:18:40;;;;;;;;;;;11.50;99.90;;;;;;5033267;28;20015;-84
2023/06/04 05:21:06;;;;;;;;;;;11.50;99.90;;;;;;5022388;28;20008;-84
2023/06/04 05:23:32;;;;;;;;;;;11.50;99.90;;;;;;5018445;28;20012;-84
2023/06/04 05:25:59;;;;;;;;;;;11.70;99.90;;;;;;5033289;28;19931;-83
2023/06/04 05:28:25;;;;;;;;;;;11.80;99.90;;;;;;5027042;28;20320;-85
2023/06/04 05:30:58;;;;;;;;;;;11.90;99.90;;;;;;5018640;28;19929;-84
2023/06/04 05:33:24;;;;;;;;;;;11.90;99.90;;;;;;5034072;28;19925;-84
2023/06/04 05:35:51;;;;;;;;;;;12.00;99.90;;;;;;5035026;28;19983;-84
2023/06/04 05:38:18;;;;;;;;;;;12.10;99.90;;;;;;5028905;28;19937;-84
2023/06/04 05:40:45;;;;;;;;;;;12.20;99.90;;;;;;5021785;28;20382;-84
2023/06/04 05:43:10;;;;;;;;;;;12.20;99.90;;;;;;5033209;28;19928;-85
2023/06/04 05:45:36;;;;;;;;;;;12.20;99.90;;;;;;4999719;28;20623;-83
2023/06/04 05:48:02;;;;;;;;;;;12.20;99.90;;;;;;5032370;28;19924;-85
2023/06/04 05:50:28;;;;;;;;;;;12.30;99.90;;;;;;5029578;28;19987;-84
2023/06/04 05:52:53;;;;;;;;;;;12.20;99.90;;;;;;5031001;28;20383;-84
2023/06/04 05:55:19;;;;;;;;;;;12.30;99.90;;;;;;5016528;28;19932;-83
2023/06/04 05:57:44;;;;;;;;;;;12.40;99.90;;;;;;5036129;28;20037;-84
2023/06/04 06:00:10;;;;;;;;;;;12.40;99.90;;;;;;5031449;28;19925;-87
2023/06/04 06:02:37;;;;;;;;;;;12.40;99.90;;;;;;5037573;28;19947;-84
2023/06/04 06:05:03;;;;;;;;;;;12.40;99.90;;;;;;5018997;28;19932;-85
2023/06/04 06:07:28;;;;;;;;;;;12.50;99.90;;;;;;5031082;28;19929;-85
2023/06/04 06:09:54;;;;;;;;;;;12.50;99.90;;;;;;5034063;28;19925;-84
2023/06/04 06:12:20;;;;;;;;;;;12.60;99.90;;;;;;5036394;28;20522;-84
2023/06/04 06:14:45;;;;;;;;;;;12.60;99.90;;;;;;5033561;28;19936;-84
2023/06/04 06:17:11;;;;;;;;;;;12.60;99.90;;;;;;5032704;28;19925;-85
2023/06/04 06:19:37;;;;;;;;;;;12.70;99.90;;;;;;5034792;28;20359;-84
2023/06/04 06:22:03;;;;;;;;;;;12.80;99.90;;;;;;5035807;28;19932;-84
2023/06/04 06:24:29;;;;;;;;;;;12.80;99.90;;;;;;5032776;28;20302;-85
2023/06/04 06:26:54;;;;;;;;;;;12.80;99.90;;;;;;5034573;28;20382;-84
2023/06/04 06:29:20;;;;;;;;;;;12.80;99.90;;;;;;5031068;28;20016;-84
2023/06/04 06:31:47;;;;;;;;;;;12.90;99.90;;;;;;5033921;28;20164;-84
2023/06/04 06:34:12;;;;;;;;;;;13.00;99.90;;;;;;5037832;28;20001;-84
2023/06/04 06:36:38;;;;;;;;;;;13.00;99.90;;;;;;5036641;28;20020;-84
2023/06/04 06:39:04;;;;;;;;;;;13.00;99.90;;;;;;5033484;28;19925;-84
2023/06/04 06:41:30;;;;;;;;;;;13.10;99.90;;;;;;5032483;28;19935;-84
2023/06/04 06:43:56;;;;;;;;;;;13.10;99.90;;;;;;5034598;28;19932;-84
2023/06/04 06:46:22;;;;;;;;;;;13.20;99.90;;;;;;5032366;28;19925;-85
2023/06/04 06:48:48;;;;;;;;;;;13.20;99.90;;;;;;5012208;28;19924;-84
2023/06/04 06:51:14;;;;;;;;;;;13.30;99.90;;;;;;5017987;28;19931;-85
2023/06/04 06:53:39;;;;;;;;;;;13.30;99.90;;;;;;5029961;28;19936;-85
2023/06/04 06:56:05;;;;;;;;;;;13.30;99.90;;;;;;5016915;28;19925;-83
2023/06/04 06:58:31;;;;;;;;;;;13.40;99.90;;;;;;5031378;28;20070;-84
2023/06/04 07:00:57;;;;;;;;;;;13.40;99.90;;;;;;5033186;28;19929;-83
2023/06/04 07:03:22;;;;;;;;;;;13.50;99.90;;;;;;5032325;28;19931;-86
2023/06/04 07:05:48;;;;;;;;;;;13.50;99.90;;;;;;5036533;28;19925;-83
2023/06/04 07:08:14;;;;;;;;;;;15.00;99.90;;;;;;5037466;28;19974;-85
2023/06/04 07:10:39;;;;;;;;;;;13.60;99.90;;;;;;5037414;28;19932;-85
2023/06/04 07:13:08;;;;;;;;;;;13.70;99.90;;;;;;5037708;28;19932;-83
2023/06/04 07:15:33;;;;;;;;;;;13.70;99.90;;;;;;5037358;28;19933;-84
2023/06/04 07:18:02;;;;;;;;;;;13.70;99.90;;;;;;5036921;28;20294;-85
2023/06/04 07:20:27;;;;;;;;;;;13.80;99.90;;;;;;5036875;28;19932;-83
2023/06/04 07:22:53;;;;;;;;;;;13.90;99.90;;;;;;5036934;28;19929;-83
2023/06/04 07:25:19;;;;;;;;;;;13.90;99.90;;;;;;5037271;28;20350;-84
2023/06/04 07:27:45;;;;;;;;;;;13.90;99.90;;;;;;5037717;28;19983;-83
2023/06/04 07:30:10;;;;;;;;;;;14.00;99.90;;;;;;5021000;28;19971;-85
2023/06/04 07:32:36;;;;;;;;;;;14.00;99.90;;;;;;5020610;28;20520;-84
2023/06/04 07:35:02;;;;;;;;;;;14.00;99.90;;;;;;5019951;28;19932;-84
2023/06/04 07:37:28;;;;;;;;;;;14.10;99.90;;;;;;5020454;28;19925;-85
2023/06/04 07:39:53;;;;;;;;;;;14.20;99.90;;;;;;5035823;28;20272;-85
2023/06/04 07:42:19;;;;;;;;;;;14.20;99.90;;;;;;5037349;28;19975;-86
2023/06/04 07:44:45;;;;;;;;;;;14.30;99.90;;;;;;5036831;28;19974;-85
2023/06/04 07:47:10;;;;;;;;;;;14.30;99.90;;;;;;5037034;28;19933;-84
2023/06/04 07:49:36;;;;;;;;;;;14.40;99.90;;;;;;5019224;28;19935;-85
2023/06/04 07:52:01;;;;;;;;;;;14.50;99.90;;;;;;5019943;28;19979;-84
2023/06/04 07:54:27;;;;;;;;;;;14.50;99.90;;;;;;5035253;28;20368;-84
2023/06/04 07:56:55;;;;;;;;;;;14.50;99.90;;;;;;5020227;28;19924;-85
2023/06/04 07:59:22;;;;;;;;;;;14.50;99.90;;;;;;5032300;28;19965;-85
2023/06/04 08:01:49;;;;;;;;;;;14.50;99.90;;;;;;5032043;28;20399;-85
2023/06/04 08:04:15;;;;;;;;;;;14.60;99.90;;;;;;5027602;28;19933;-85
2023/06/04 08:06:41;;;;;;;;;;;14.60;99.90;;;;;;5032448;28;19932;-85
2023/06/04 08:09:11;;;;;;;;;;;14.70;99.90;;;;;;5015141;28;19984;-85
2023/06/04 08:11:37;;;;;;;;;;;14.80;99.90;;;;;;5030050;28;19998;-84
2023/06/04 08:14:03;;;;;;;;;;;14.90;99.90;;;;;;5026171;28;20449;-84
2023/06/04 08:16:28;;;;;;;;;;;14.90;99.90;;;;;;5019859;28;20374;-85
2023/06/04 08:18:54;;;;;;;;;;;14.90;99.90;;;;;;5034354;28;19951;-84
2023/06/04 08:21:26;;;;;;;;;;;15.10;99.90;;;;;;5036064;28;19978;-85
2023/06/04 08:23:52;;;;;;;;;;;15.10;99.90;;;;;;5019577;28;19932;-85
2023/06/04 08:26:19;;;;;;;;;;;15.10;99.90;;;;;;5036689;28;19928;-85
2023/06/04 08:28:47;;;;;;;;;;;15.20;99.90;;;;;;5015073;28;20378;-86
2023/06/04 08:31:13;;;;;;;;;;;15.20;99.90;;;;;;5024059;28;19933;-84
2023/06/04 08:33:39;;;;;;;;;;;15.30;99.90;;;;;;5030262;28;20032;-88
2023/06/04 08:36:05;;;;;;;;;;;15.30;99.90;;;;;;5035239;28;19946;-84
2023/06/04 08:38:30;;;;;;;;;;;15.30;99.90;;;;;;5015990;28;19924;-84
2023/06/04 08:40:57;;;;;;;;;;;15.30;99.90;;;;;;5016759;28;19929;-84
2023/06/04 08:43:24;;;;;;;;;;;15.40;99.90;;;;;;5018821;28;20103;-85
2023/06/04 08:45:52;;;;;;;;;;;15.50;99.90;;;;;;5019587;28;19964;-86
2023/06/04 08:48:18;;;;;;;;;;;15.60;99.90;;;;;;5035318;28;20358;-84
2023/06/04 08:50:47;;;;;;;;;;;15.70;99.90;;;;;;5029791;28;19925;-86
2023/06/04 08:53:15;;;;;;;;;;;15.70;99.90;;;;;;5019370;28;19925;-83
2023/06/04 08:55:41;;;;;;;;;;;15.80;99.90;;;;;;5016767;28;20375;-85
2023/06/04 08:58:08;;;;;;;;;;;15.90;99.90;;;;;;5026645;28;19956;-85
2023/06/04 09:00:33;;;;;;;;;;;15.90;99.90;;;;;;5029822;28;19931;-86
2023/06/04 09:03:01;;;;;;;;;;;16.10;99.90;;;;;;5035197;28;20007;-86
2023/06/04 09:05:27;;;;;;;;;;;16.10;99.90;;;;;;5021009;28;20019;-84
2023/06/04 09:07:56;;;;;;;;;;;16.20;99.90;;;;;;5028727;28;19963;-85
2023/06/04 09:10:23;;;;;;;;;;;16.30;99.90;;;;;;5019331;28;20267;-85
2023/06/04 09:12:50;;;;;;;;;;;16.30;99.90;;;;;;5035563;28;20290;-85
2023/06/04 09:15:16;;;;;;;;;;;16.40;99.90;;;;;;5035499;28;19924;-83
2023/06/04 09:17:41;;;;;;;;;;;16.60;99.90;;;;;;5034757;28;20327;-84
2023/06/04 09:20:08;;;;;;;;;;;16.50;99.90;;;;;;5033148;28;19924;-84
2023/06/04 09:22:35;;;;;;;;;;;16.60;99.90;;;;;;5019577;28;19925;-85
2023/06/04 09:25:03;;;;;;;;;;;16.70;99.90;;;;;;5014089;28;20371;-85
2023/06/04 09:27:37;;;;;;;;;;;16.80;99.90;;;;;;5025654;28;19925;-85
2023/06/04 09:30:02;;;;;;;;;;;16.80;99.90;;;;;;5028086;28;20008;-85
2023/06/04 09:32:30;;;;;;;;;;;16.90;99.90;;;;;;5030297;28;20012;-85
2023/06/04 09:35:08;;;;;;;;;;;17.00;99.90;;;;;;5029100;28;20019;-84
2023/06/04 09:37:34;;;;;;;;;;;17.10;99.90;;;;;;5031831;28;19925;-83
2023/06/04 09:40:00;;;;;;;;;;;17.00;99.90;;;;;;5018826;28;19924;-84
2023/06/04 09:42:26;;;;;;;;;;;17.10;99.90;;;;;;5019238;28;19971;-84
2023/06/04 09:44:51;;;;;;;;;;;17.10;99.90;;;;;;5018555;28;20004;-85
2023/06/04 09:47:17;;;;;;;;;;;17.10;99.90;;;;;;5018869;28;19925;-84
2023/06/04 09:49:46;;;;;;;;;;;17.20;99.90;;;;;;5025232;28;19927;-84
2023/06/04 09:52:13;;;;;;;;;;;17.30;99.90;;;;;;5024843;28;20395;-85
2023/06/04 09:54:39;;;;;;;;;;;17.30;99.90;;;;;;5018389;28;19932;-84
2023/06/04 09:57:13;;;;;;;;;;;17.30;99.90;;;;;;5024930;28;20055;-85
2023/06/04 09:59:39;;;;;;;;;;;17.40;99.90;;;;;;5008437;28;20372;-86
2023/06/04 10:02:06;;;;;;;;;;;17.50;99.90;;;;;;5016121;28;20372;-85
2023/06/04 10:04:33;;;;;;;;;;;17.60;99.50;;;;;;5018236;28;20295;-85
2023/06/04 10:06:59;;;;;;;;;;;17.60;99.30;;;;;;5030731;28;19964;-85
2023/06/04 10:09:26;;;;;;;;;;;17.60;99.90;;;;;;5018174;28;20375;-83
2023/06/04 10:11:55;;;;;;;;;;;17.60;99.60;;;;;;5018343;28;20402;-85
2023/06/04 10:14:23;;;;;;;;;;;17.70;99.60;;;;;;5018689;28;20388;-85
2023/06/04 10:16:50;;;;;;;;;;;17.70;99.90;;;;;;5034286;28;19924;-85
2023/06/04 10:19:16;;;;;;;;;;;17.90;99.90;;;;;;5022165;28;19925;-84
2023/06/04 10:21:42;;;;;;;;;;;18.00;99.70;;;;;;5025011;28;19925;-86
2023/06/04 10:24:08;;;;;;;;;;;18.10;98.50;;;;;;5044280;28;19925;-83
2023/06/04 10:26:35;;;;;;;;;;;18.10;97.20;;;;;;5007886;28;19932;-86
2023/06/04 10:29:02;;;;;;;;;;;18.10;98.50;;;;;;5030790;28;19932;-85
2023/06/04 10:31:27;;;;;;;;;;;18.20;99.30;;;;;;5016645;28;19925;-85
2023/06/04 10:33:54;;;;;;;;;;;18.20;98.00;;;;;;5027577;28;19932;-85
2023/06/04 10:36:20;;;;;;;;;;;18.30;97.50;;;;;;5026797;28;19931;-85
2023/06/04 10:38:50;;;;;;;;;;;18.40;95.20;;;;;;5030104;28;20530;-85
2023/06/04 10:41:17;;;;;;;;;;;18.30;96.10;;;;;;5017246;28;19925;-85
2023/06/04 10:43:43;;;;;;;;;;;18.30;95.30;;;;;;5035373;28;19925;-85
2023/06/04 10:46:13;;;;;;;;;;;18.40;95.00;;;;;;5032745;28;19925;-86
2023/06/04 10:48:49;;;;;;;;;;;18.40;94.70;;;;;;5034868;28;19967;-85
2023/06/04 10:51:16;;;;;;;;;;;18.50;95.90;;;;;;5031156;28;19979;-85
2023/06/04 10:53:41;;;;;;;;;;;18.60;93.80;;;;;;5030717;28;19967;-86
2023/06/04 10:56:07;;;;;;;;;;;18.60;93.30;;;;;;5014684;28;19967;-84
2023/06/04 10:58:33;;;;;;;;;;;18.60;92.80;;;;;;5037575;28;19983;-85
2023/06/04 11:00:59;;;;;;;;;;;18.50;93.30;;;;;;5038283;28;19932;-86
2023/06/04 11:03:34;;;;;;;;;;;18.50;93.10;;;;;;5020841;28;19925;-87
2023/06/04 11:06:00;;;;;;;;;;;18.50;94.10;;;;;;5038664;28;20286;-85
2023/06/04 11:08:28;;;;;;;;;;;18.70;92.50;;;;;;5021457;28;19924;-85
2023/06/04 11:10:53;;;;;;;;;;;18.30;92.30;;;;;;5021487;28;19932;-85
2023/06/04 11:13:23;;;;;;;;;;;18.80;93.30;;;;;;5021402;28;19925;-84
2023/06/04 11:15:49;;;;;;;;;;;18.90;92.90;;;;;;5022100;28;20347;-86
2023/06/04 11:18:15;;;;;;;;;;;19.00;93.10;;;;;;5041387;28;19924;-85
2023/06/04 11:20:42;;;;;;;;;;;19.00;93.30;;;;;;5037412;28;19936;-86
2023/06/04 11:23:08;;;;;;;;;;;19.10;92.70;;;;;;5031471;28;20397;-85
2023/06/04 11:25:34;;;;;;;;;;;19.10;93.00;;;;;;5029768;28;19925;-85
2023/06/04 11:28:01;;;;;;;;;;;19.10;93.80;;;;;;5020664;28;19932;-84
2023/06/04 11:30:27;;;;;;;;;;;19.20;92.50;;;;;;5001797;28;19928;-86
2023/06/04 11:33:05;;;;;;;;;;;19.30;92.50;;;;;;5037552;28;20063;-85
2023/06/04 11:35:39;;;;;;;;;;;19.20;92.50;;;;;;5036881;28;20281;-85
2023/06/04 11:38:05;;;;;;;;;;;19.30;91.70;;;;;;5027239;28;19925;-87
2023/06/04 11:40:30;;;;;;;;;;;19.20;91.90;;;;;;5004478;28;19926;-87
2023/06/04 11:42:56;;;;;;;;;;;19.20;91.70;;;;;;5020826;28;19975;-87
2023/06/04 11:45:22;;;;;;;;;;;19.20;91.00;;;;;;5004844;28;19932;-86
2023/06/04 11:47:55;;;;;;;;;;;19.20;91.20;;;;;;5036437;28;19925;-86
2023/06/04 11:50:21;;;;;;;;;;;19.20;92.40;;;;;;4995320;28;19936;-87
2023/06/04 11:52:48;;;;;;;;;;;19.30;92.00;;;;;;5029159;28;20007;-85
2023/06/04 11:55:14;;;;;;;;;;;19.40;92.40;;;;;;5037121;28;19924;-86
2023/06/04 11:57:40;;;;;;;;;;;17.90;90.50;;;;;;5018393;28;19979;-87
2023/06/04 12:00:09;;;;;;;;;;;19.40;91.80;;;;;;5031067;28;19933;-87
2023/06/04 12:02:35;;;;;;;;;;;19.40;92.00;;;;;;5030204;28;20287;-86
2023/06/04 12:05:14;;;;;;;;;;;19.50;91.40;;;;;;5008580;28;19925;-85
2023/06/04 12:07:40;;;;;;;;;;;19.60;91.90;;;;;;5020183;28;19978;-84
2023/06/04 12:10:07;;;;;;;;;;;19.60;92.10;;;;;;5034158;28;19929;-86
2023/06/04 12:12:34;;;;;;;;;;;19.70;91.40;;;;;;5004135;28;19978;-84
2023/06/04 12:15:00;;;;;;;;;;;19.80;91.50;;;;;;5032585;28;19925;-86
2023/06/04 12:17:25;;;;;;;;;;;19.80;90.40;;;;;;5033236;28;19925;-88
2023/06/04 12:19:51;;;;;;;;;;;19.70;91.60;;;;;;5015899;28;19967;-90
2023/06/04 12:22:20;;;;;;;;;;;18.20;91.50;;;;;;5029385;28;19936;-87
2023/06/04 12:24:55;;;;;;;;;;;20.00;91.10;;;;;;5015884;28;19940;-86
2023/06/04 12:27:23;;;;;;;;;;;20.00;91.10;;;;;;5034727;28;19933;-87
2023/06/04 12:29:58;;;;;;;;;;;20.10;92.00;;;;;;5018428;28;19925;-87
2023/06/04 12:32:24;;;;;;;;;;;20.20;91.00;;;;;;5030395;28;19925;-85
2023/06/04 12:34:50;;;;;;;;;;;20.20;89.60;;;;;;5016999;28;19925;-85
2023/06/04 12:37:15;;;;;;;;;;;20.10;90.00;;;;;;5036027;28;19978;-85
2023/06/04 12:39:43;;;;;;;;;;;20.00;89.80;;;;;;5013608;28;20115;-86
2023/06/04 12:42:17;;;;;;;;;;;20.00;89.60;;;;;;5030458;28;19932;-88
2023/06/04 12:44:43;;;;;;;;;;;19.90;89.70;;;;;;5008656;28;20315;-86
2023/06/04 12:47:16;;;;;;;;;;;20.00;90.80;;;;;;5035628;28;20015;-87
2023/06/04 12:49:45;;;;;;;;;;;20.00;90.90;;;;;;5015191;28;20706;-88
2023/06/04 12:52:13;;;;;;;;;;;20.20;90.50;;;;;;5018990;28;19931;-88
2023/06/04 12:54:44;;;;;;;;;;;20.10;90.80;;;;;;5012107;28;19932;-88
2023/06/04 12:57:10;;;;;;;;;;;20.10;90.30;;;;;;5034145;28;19924;-86
2023/06/04 12:59:38;;;;;;;;;;;20.20;91.30;;;;;;5032972;28;19970;-88
2023/06/04 13:02:04;;;;;;;;;;;20.20;91.30;;;;;;5005669;28;19924;-87
2023/06/04 13:04:30;;;;;;;;;;;20.10;91.40;;;;;;5029893;28;19932;-87
2023/06/04 13:06:58;;;;;;;;;;;20.30;90.40;;;;;;5022327;28;20363;-89
2023/06/04 13:09:31;;;;;;;;;;;20.20;90.40;;;;;;4999273;28;19929;-89
2023/06/04 13:11:57;;;;;;;;;;;19.30;90.30;;;;;;5017453;28;19928;-90
2023/06/04 13:14:23;;;;;;;;;;;19.80;91.70;;;;;;5027218;28;19932;-90
2023/06/04 13:16:50;;;;;;;;;;;20.10;91.30;;;;;;5019266;28;19995;-88
2023/06/04 13:19:16;;;;;;;;;;;20.10;90.80;;;;;;5018130;28;20294;-88
2023/06/04 13:21:42;;;;;;;;;;;20.20;90.60;;;;;;5019880;28;19964;-92
2023/06/04 13:24:10;;;;;;;;;;;20.10;91.10;;;;;;5029814;28;19935;-87
2023/06/04 13:26:38;;;;;;;;;;;20.20;91.00;;;;;;5032240;28;19925;-91
2023/06/04 13:29:04;;;;;;;;;;;20.10;91.40;;;;;;5035627;28;19974;-90
2023/06/04 13:31:30;;;;;;;;;;;18.70;88.90;;;;;;5010044;28;19929;-90
2023/06/04 13:33:58;;;;;;;;;;;20.30;90.80;;;;;;5014120;28;20367;-88
2023/06/04 13:36:26;;;;;;;;;;;20.30;91.70;;;;;;5005554;28;19968;-88
2023/06/04 13:39:10;;;;;;;;;;;20.40;90.70;;;;;;5021468;28;19979;-90
2023/06/04 13:41:36;;;;;;;;;;;20.20;90.00;;;;;;5000677;28;20335;-89
2023/06/04 13:44:02;;;;;;;;;;;20.20;91.70;;;;;;5010225;28;20011;-89
2023/06/04 13:46:27;;;;;;;;;;;18.80;90.40;;;;;;5034967;28;19932;-88
2023/06/04 13:48:53;;;;;;;;;;;20.20;90.40;;;;;;5017573;28;20072;-88
2023/06/04 13:51:20;;;;;;;;;;;20.20;90.70;;;;;;5004771;28;19925;-87
2023/06/04 13:53:48;;;;;;;;;;;20.30;89.40;;;;;;5028465;28;19925;-88
2023/06/04 13:56:14;;;;;;;;;;;20.30;88.30;;;;;;5018031;28;19924;-88
2023/06/04 13:58:45;;;;;;;;;;;20.10;90.30;;;;;;5027356;28;20015;-89
2023/06/04 14:01:10;;;;;;;;;;;19.00;88.40;;;;;;5033628;28;19970;-87
2023/06/04 14:03:36;;;;;;;;;;;20.10;90.80;;;;;;5010833;28;19928;-88
2023/06/04 14:06:02;;;;;;;;;;;21.30;91.10;;;;;;5016967;28;19951;-89
2023/06/04 14:08:28;;;;;;;;;;;18.70;90.60;;;;;;5012950;28;20020;-87
2023/06/04 14:10:54;;;;;;;;;;;20.00;89.80;;;;;;5005059;28;19929;-87
2023/06/04 14:13:20;;;;;;;;;;;20.00;91.40;;;;;;5001789;28;20338;-88
2023/06/04 14:15:53;;;;;;;;;;;20.20;91.30;;;;;;5018551;28;19969;-88